createdAt,value
2019-04-01T00:01:25.877Z,20.80
2019-04-01T00:03:57.417Z,20.25
2019-04-01T00:06:28.857Z,20.65
2019-04-01T00:09:00.237Z,21.33
2019-04-01T00:11:31.799Z,23.83
2019-04-01T00:14:03.408Z,23.87
2019-04-01T00:16:34.725Z,22.73
2019-04-01T00:19:06.389Z,21.42
2019-04-01T00:21:37.920Z,22.80
2019-04-01T00:24:09.557Z,22.95
2019-04-01T00:26:41.182Z,20.52
2019-04-01T00:29:12.907Z,23.12
2019-04-01T00:31:44.428Z,23.42
2019-04-01T00:34:15.988Z,21.68
2019-04-01T00:36:47.319Z,21.02
2019-04-01T00:39:18.534Z,22.13
2019-04-01T00:42:00.632Z,24.82
2019-04-01T00:44:32.182Z,21.68
2019-04-01T00:47:03.641Z,22.82
2019-04-01T00:49:35.022Z,22.13
2019-04-01T00:52:06.279Z,21.60
2019-04-01T00:54:37.647Z,23.20
2019-04-01T00:57:09.283Z,23.85
2019-04-01T00:59:40.542Z,23.32
2019-04-01T01:02:11.741Z,21.60
2019-04-01T01:04:43.338Z,23.67
2019-04-01T01:07:15.038Z,22.07
2019-04-01T01:09:46.330Z,25.37
2019-04-01T01:12:17.818Z,28.17
2019-04-01T01:14:49.299Z,26.95
2019-04-01T01:17:20.623Z,25.68
2019-04-01T01:19:52.088Z,27.35
2019-04-01T01:22:23.658Z,27.17
2019-04-01T01:24:56.218Z,26.62
2019-04-01T01:27:27.564Z,28.15
2019-04-01T01:29:59.030Z,26.55
2019-04-01T01:32:30.375Z,29.25
2019-04-01T01:35:01.813Z,26.40
2019-04-01T01:37:33.351Z,24.15
2019-04-01T01:40:05.018Z,23.35
2019-04-01T01:42:36.469Z,24.25
2019-04-01T01:45:08.118Z,23.92
2019-04-01T01:47:39.632Z,24.07
2019-04-01T01:50:11.446Z,23.30
2019-04-01T01:52:42.971Z,23.77
2019-04-01T01:55:14.565Z,24.25
2019-04-01T01:57:46.137Z,22.37
2019-04-01T02:00:18.347Z,24.55
2019-04-01T02:02:49.574Z,22.60
2019-04-01T02:05:21.101Z,26.42
2019-04-01T02:07:52.513Z,25.92
2019-04-01T02:10:24.054Z,24.82
2019-04-01T02:12:55.562Z,26.07
2019-04-01T02:15:27.169Z,25.97
2019-04-01T02:17:59.110Z,27.07
2019-04-01T02:20:30.422Z,29.87
2019-04-01T02:23:01.745Z,34.60
2019-04-01T02:25:33.202Z,29.82
2019-04-01T02:28:04.728Z,30.15
2019-04-01T02:30:36.157Z,26.75
2019-04-01T02:33:07.564Z,27.62
2019-04-01T02:35:39.084Z,30.55
2019-04-01T02:38:10.309Z,30.68
2019-04-01T02:40:41.855Z,28.73
2019-04-01T02:43:13.125Z,32.55
2019-04-01T02:45:44.377Z,24.87
2019-04-01T02:48:15.850Z,28.52
2019-04-01T02:50:47.415Z,28.45
2019-04-01T02:53:18.659Z,27.27
2019-04-01T02:55:50.068Z,25.57
2019-04-01T02:58:21.475Z,25.92
2019-04-01T03:00:53.150Z,26.55
2019-04-01T03:03:24.395Z,26.40
2019-04-01T03:05:56.068Z,24.77
2019-04-01T03:08:27.533Z,26.20
2019-04-01T03:10:59.107Z,27.93
2019-04-01T03:13:30.692Z,25.57
2019-04-01T03:16:02.298Z,26.48
2019-04-01T03:18:33.733Z,27.60
2019-04-01T03:21:05.203Z,26.97
2019-04-01T03:23:36.503Z,30.80
2019-04-01T03:26:08.714Z,34.50
2019-04-01T03:28:40.457Z,31.77
2019-04-01T03:31:13.038Z,30.72
2019-04-01T03:33:44.762Z,39.67
2019-04-01T03:36:16.136Z,41.73
2019-04-01T03:38:47.472Z,36.03
2019-04-01T03:41:19.814Z,32.63
2019-04-01T03:43:51.329Z,37.83
2019-04-01T03:46:22.951Z,37.15
2019-04-01T03:48:54.423Z,39.25
2019-04-01T03:51:25.812Z,41.02
2019-04-01T03:53:57.652Z,40.28
2019-04-01T03:56:28.990Z,46.45
2019-04-01T03:59:00.572Z,43.28
2019-04-01T04:01:31.975Z,39.53
2019-04-01T04:04:03.359Z,36.75
2019-04-01T04:06:35.078Z,36.00
2019-04-01T04:09:07.585Z,39.00
2019-04-01T04:11:38.812Z,37.78
2019-04-01T04:14:10.373Z,31.07
2019-04-01T04:16:41.579Z,32.10
2019-04-01T04:19:13.018Z,39.83
2019-04-01T04:21:44.538Z,41.50
2019-04-01T04:24:15.754Z,39.08
2019-04-01T04:26:47.314Z,40.17
2019-04-01T04:29:18.767Z,40.48
2019-04-01T04:31:50.210Z,36.70
2019-04-01T04:34:21.711Z,45.58
2019-04-01T04:36:53.600Z,48.42
2019-04-01T04:39:25.443Z,41.02
2019-04-01T04:41:57.155Z,42.45
2019-04-01T04:44:28.658Z,38.42
2019-04-01T04:47:00.159Z,40.73
2019-04-01T04:49:31.583Z,41.90
2019-04-01T04:52:04.627Z,43.30
2019-04-01T04:54:37.135Z,44.60
2019-04-01T04:57:08.424Z,37.53
2019-04-01T04:59:39.810Z,37.30
2019-04-01T05:02:11.403Z,40.35
2019-04-01T05:04:43.047Z,41.40
2019-04-01T05:07:14.527Z,33.23
2019-04-01T05:09:45.878Z,43.58
2019-04-01T05:12:17.100Z,38.00
2019-04-01T05:14:48.751Z,36.83
2019-04-01T05:17:20.053Z,46.83
2019-04-01T05:19:51.600Z,45.48
2019-04-01T05:22:25.357Z,43.23
2019-04-01T05:24:58.053Z,37.58
2019-04-01T05:27:30.899Z,51.98
2019-04-01T05:30:03.883Z,35.85
2019-04-01T05:32:37.495Z,37.17
2019-04-01T05:35:09.113Z,37.13
2019-04-01T05:37:40.873Z,41.90
2019-04-01T05:40:12.374Z,41.42
2019-04-01T05:42:43.864Z,48.45
2019-04-01T05:45:15.595Z,43.23
2019-04-01T05:47:49.888Z,40.17
2019-04-01T05:50:21.281Z,47.15
2019-04-01T05:52:52.846Z,48.00
2019-04-01T05:55:26.050Z,51.83
2019-04-01T05:57:57.809Z,51.45
2019-04-01T06:00:48.499Z,53.35
2019-04-01T06:03:20.081Z,50.30
2019-04-01T06:05:51.541Z,45.28
2019-04-01T06:08:23.030Z,40.83
2019-04-01T06:10:54.702Z,37.53
2019-04-01T06:13:26.330Z,45.15
2019-04-01T06:15:58.545Z,43.38
2019-04-01T06:18:30.085Z,37.48
2019-04-01T06:21:01.841Z,38.98
2019-04-01T06:23:33.450Z,41.77
2019-04-01T06:26:05.012Z,40.28
2019-04-01T06:28:36.457Z,41.08
2019-04-01T06:31:08.284Z,44.27
2019-04-01T06:33:39.665Z,42.15
2019-04-01T06:36:11.466Z,38.83
2019-04-01T06:38:43.188Z,38.17
2019-04-01T06:41:14.442Z,38.60
2019-04-01T06:43:45.989Z,37.85
2019-04-01T06:46:17.233Z,40.13
2019-04-01T06:48:48.521Z,52.53
2019-04-01T06:51:19.831Z,42.90
2019-04-01T06:53:52.695Z,37.60
2019-04-01T06:56:23.960Z,41.67
2019-04-01T06:58:55.503Z,47.43
2019-04-01T07:01:26.754Z,38.20
2019-04-01T07:03:57.871Z,43.60
2019-04-01T07:06:28.922Z,37.00
2019-04-01T07:09:00.196Z,36.97
2019-04-01T07:11:31.485Z,39.87
2019-04-01T07:14:02.782Z,35.37
2019-04-01T07:16:34.073Z,39.10
2019-04-01T07:19:05.463Z,37.80
2019-04-01T07:21:36.871Z,37.17
2019-04-01T07:24:07.875Z,31.50
2019-04-01T07:26:38.953Z,35.83
2019-04-01T07:29:10.281Z,43.83
2019-04-01T07:31:41.887Z,37.73
2019-04-01T07:34:12.921Z,36.70
2019-04-01T07:36:44.146Z,33.43
2019-04-01T07:39:15.222Z,39.00
2019-04-01T07:41:46.434Z,33.37
2019-04-01T07:44:17.767Z,36.70
2019-04-01T07:46:49.105Z,33.50
2019-04-01T07:49:20.447Z,29.90
2019-04-01T07:51:51.782Z,47.27
2019-04-01T07:54:23.028Z,31.87
2019-04-01T07:56:54.511Z,29.30
2019-04-01T07:59:25.634Z,28.63
2019-04-01T08:01:57.212Z,29.60
2019-04-01T08:04:28.415Z,29.97
2019-04-01T08:06:59.767Z,28.40
2019-04-01T08:09:31.269Z,21.90
2019-04-01T08:12:02.647Z,22.63
2019-04-01T08:14:34.007Z,21.63
2019-04-01T08:17:05.330Z,19.90
2019-04-01T08:19:37.384Z,22.30
2019-04-01T08:22:08.619Z,21.10
2019-04-01T08:24:39.732Z,22.57
2019-04-01T08:27:11.174Z,23.30
2019-04-01T08:29:42.641Z,24.83
2019-04-01T08:32:14.194Z,29.10
2019-04-01T08:34:45.725Z,26.57
2019-04-01T08:37:17.201Z,25.57
2019-04-01T08:39:48.340Z,28.00
2019-04-01T08:42:19.538Z,25.63
2019-04-01T08:44:50.920Z,42.40
2019-04-01T08:47:22.266Z,24.37
2019-04-01T08:49:53.632Z,24.87
2019-04-01T08:52:24.747Z,21.80
2019-04-01T08:54:56.056Z,21.17
2019-04-01T08:57:27.294Z,18.33
2019-04-01T08:59:58.613Z,19.20
2019-04-01T09:02:29.770Z,24.53
2019-04-01T09:05:01.052Z,18.27
2019-04-01T09:07:32.091Z,22.77
2019-04-01T09:10:03.276Z,21.30
2019-04-01T09:12:34.390Z,22.10
2019-04-01T09:15:06.250Z,17.87
2019-04-01T09:17:40.331Z,21.47
2019-04-01T09:20:11.676Z,21.07
2019-04-01T09:22:42.680Z,22.00
2019-04-01T09:25:13.945Z,18.63
2019-04-01T09:27:45.397Z,19.20
2019-04-01T09:30:18.640Z,20.97
2019-04-01T09:32:49.852Z,17.33
2019-04-01T09:35:21.365Z,18.47
2019-04-01T09:37:52.739Z,18.43
2019-04-01T09:40:24.140Z,15.20
2019-04-01T09:42:55.533Z,16.23
2019-04-01T09:45:27.089Z,17.07
2019-04-01T09:47:58.496Z,18.50
2019-04-01T09:50:29.760Z,16.97
2019-04-01T09:53:00.955Z,17.73
2019-04-01T09:55:32.291Z,17.77
2019-04-01T09:58:03.303Z,15.03
2019-04-01T10:00:34.521Z,15.37
2019-04-01T10:03:05.662Z,13.47
2019-04-01T10:05:37.045Z,17.97
2019-04-01T10:08:08.302Z,14.23
2019-04-01T10:10:39.362Z,8.30
2019-04-01T10:13:10.555Z,12.80
2019-04-01T10:15:41.991Z,9.13
2019-04-01T10:18:13.031Z,8.00
2019-04-01T10:20:44.180Z,7.97
2019-04-01T10:23:15.149Z,11.07
2019-04-01T10:25:46.410Z,8.80
2019-04-01T10:28:17.672Z,8.13
2019-04-01T10:30:48.823Z,9.83
2019-04-01T10:33:19.947Z,10.67
2019-04-01T10:35:51.195Z,9.27
2019-04-01T10:38:22.431Z,17.17
2019-04-01T10:40:53.517Z,15.50
2019-04-01T10:43:24.593Z,10.33
2019-04-01T10:45:55.866Z,10.63
2019-04-01T10:48:27.218Z,9.50
2019-04-01T10:50:56.916Z,12.00
2019-04-01T10:53:28.417Z,9.17
2019-04-01T10:55:59.707Z,11.37
2019-04-01T10:58:31.409Z,12.93
2019-04-01T11:01:02.919Z,10.43
2019-04-01T11:03:34.400Z,11.50
2019-04-01T11:06:06.026Z,10.10
2019-04-01T11:08:37.313Z,11.97
2019-04-01T11:11:08.469Z,9.07
2019-04-01T11:13:39.909Z,10.77
2019-04-01T11:16:11.388Z,8.47
2019-04-01T11:18:42.437Z,9.47
2019-04-01T11:21:13.705Z,9.40
2019-04-01T11:23:45.150Z,9.83
2019-04-01T11:26:17.895Z,14.07
2019-04-01T11:28:49.233Z,8.30
2019-04-01T11:31:20.467Z,10.40
2019-04-01T11:33:51.537Z,10.03
2019-04-01T11:36:23.349Z,9.73
2019-04-01T11:38:54.904Z,9.73
2019-04-01T11:41:26.245Z,13.07
2019-04-01T11:43:57.477Z,9.70
2019-04-01T11:46:29.049Z,10.83
2019-04-01T11:49:00.376Z,10.90
2019-04-01T11:51:33.708Z,10.57
2019-04-01T11:54:07.979Z,11.13
2019-04-01T11:56:37.347Z,8.83
2019-04-01T11:59:08.793Z,9.73
2019-04-01T12:01:40.209Z,9.20
2019-04-01T12:04:11.537Z,8.27
2019-04-01T12:06:42.739Z,10.17
2019-04-01T12:09:13.917Z,9.60
2019-04-01T12:11:45.178Z,11.07
2019-04-01T12:14:16.569Z,8.67
2019-04-01T12:16:47.870Z,8.23
2019-04-01T12:19:19.040Z,9.27
2019-04-01T12:21:50.154Z,12.60
2019-04-01T12:24:21.214Z,9.43
2019-04-01T12:26:52.248Z,13.27
2019-04-01T12:29:23.340Z,8.80
2019-04-01T12:31:54.360Z,9.57
2019-04-01T12:34:25.556Z,8.73
2019-04-01T12:36:56.860Z,8.63
2019-04-01T12:39:28.093Z,8.63
2019-04-01T12:41:59.888Z,9.83
2019-04-01T12:44:31.334Z,8.23
2019-04-01T12:47:02.671Z,8.63
2019-04-01T12:49:33.868Z,7.37
2019-04-01T12:52:05.157Z,9.83
2019-04-01T12:54:36.255Z,8.70
2019-04-01T12:57:07.510Z,8.90
2019-04-01T12:59:38.555Z,12.27
2019-04-01T13:02:09.989Z,8.03
2019-04-01T13:04:41.239Z,10.27
2019-04-01T13:07:12.584Z,7.80
2019-04-01T13:09:43.467Z,8.23
2019-04-01T13:12:14.411Z,8.40
2019-04-01T13:14:45.294Z,12.00
2019-04-01T13:17:16.526Z,8.13
2019-04-01T13:19:47.692Z,9.33
2019-04-01T13:22:19.127Z,11.73
2019-04-01T13:24:50.301Z,8.70
2019-04-01T13:27:21.662Z,9.93
2019-04-01T13:29:52.941Z,11.00
2019-04-01T13:32:24.278Z,9.57
2019-04-01T13:34:55.346Z,8.23
2019-04-01T13:37:26.441Z,10.63
2019-04-01T13:39:57.617Z,7.90
2019-04-01T13:42:28.785Z,7.77
2019-04-01T13:45:01.811Z,8.87
2019-04-01T13:47:32.609Z,9.43
2019-04-01T13:50:04.052Z,8.87
2019-04-01T13:52:35.137Z,8.23
2019-04-01T13:55:06.400Z,14.63
2019-04-01T13:57:37.661Z,8.43
2019-04-01T14:00:09.471Z,10.37
2019-04-01T14:02:40.566Z,9.20
2019-04-01T14:05:11.829Z,9.33
2019-04-01T14:07:42.813Z,8.27
2019-04-01T14:10:14.479Z,7.70
2019-04-01T14:12:45.566Z,7.43
2019-04-01T14:15:16.764Z,7.80
2019-04-01T14:17:47.836Z,9.40
2019-04-01T14:20:19.375Z,12.47
2019-04-01T14:22:53.577Z,8.50
2019-04-01T14:25:23.700Z,8.30
2019-04-01T14:27:54.932Z,9.90
2019-04-01T14:30:26.552Z,10.90
2019-04-01T14:32:57.797Z,11.63
2019-04-01T14:35:28.910Z,10.30
2019-04-01T14:38:00.266Z,10.20
2019-04-01T14:40:32.735Z,8.83
2019-04-01T14:43:03.912Z,11.57
2019-04-01T14:45:35.494Z,11.83
2019-04-01T14:48:08.582Z,10.83
2019-04-01T14:50:39.827Z,10.70
2019-04-01T14:53:11.007Z,9.87
2019-04-01T14:55:42.255Z,10.13
2019-04-01T14:58:13.644Z,9.47
2019-04-01T15:00:44.590Z,12.93
2019-04-01T15:03:16.101Z,12.40
2019-04-01T15:05:48.982Z,12.90
2019-04-01T15:08:20.104Z,13.20
2019-04-01T15:10:51.452Z,10.70
2019-04-01T15:13:22.651Z,11.23
2019-04-01T15:15:53.672Z,12.20
2019-04-01T15:18:24.706Z,10.13
2019-04-01T15:20:55.776Z,9.77
2019-04-01T15:23:27.462Z,11.30
2019-04-01T15:25:58.978Z,17.30
2019-04-01T15:28:30.575Z,15.93
2019-04-01T15:31:02.649Z,11.63
2019-04-01T15:33:33.941Z,18.13
2019-04-01T15:36:05.397Z,12.07
2019-04-01T15:38:36.607Z,12.37
2019-04-01T15:41:07.580Z,15.53
2019-04-01T15:43:38.606Z,11.07
2019-04-01T15:46:12.949Z,13.20
2019-04-01T15:48:43.848Z,12.27
2019-04-01T15:51:15.209Z,13.67
2019-04-01T15:53:44.375Z,12.27
2019-04-01T15:56:15.413Z,14.13
2019-04-01T15:58:46.627Z,16.00
2019-04-01T16:01:17.810Z,14.23
2019-04-01T16:03:49.220Z,12.93
2019-04-01T16:06:20.412Z,15.20
2019-04-01T16:08:51.673Z,12.77
2019-04-01T16:11:23.249Z,15.23
2019-04-01T16:13:55.992Z,12.37
2019-04-01T16:16:27.161Z,14.87
2019-04-01T16:18:59.263Z,12.07
2019-04-01T16:21:31.508Z,14.13
2019-04-01T16:24:02.718Z,15.63
2019-04-01T16:26:33.651Z,15.47
2019-04-01T16:29:04.746Z,14.20
2019-04-01T16:31:35.650Z,15.20
2019-04-01T16:34:06.538Z,16.43
2019-04-01T16:36:37.397Z,15.30
2019-04-01T16:39:10.441Z,15.20
2019-04-01T16:41:41.570Z,16.87
2019-04-01T16:44:12.563Z,13.33
2019-04-01T16:46:43.898Z,14.73
2019-04-01T16:49:15.118Z,13.77
2019-04-01T16:51:46.493Z,13.13
2019-04-01T16:54:17.595Z,14.20
2019-04-01T16:56:48.749Z,13.70
2019-04-01T16:59:19.767Z,15.47
2019-04-01T17:01:51.378Z,21.47
2019-04-01T17:04:23.846Z,19.43
2019-04-01T17:06:55.007Z,20.10
2019-04-01T17:09:26.211Z,21.67
2019-04-01T17:11:58.988Z,18.50
2019-04-01T17:14:30.324Z,16.13
2019-04-01T17:17:01.309Z,18.03
2019-04-01T17:19:32.529Z,18.10
2019-04-01T17:22:03.827Z,19.80
2019-04-01T17:24:35.001Z,16.33
2019-04-01T17:27:14.322Z,19.63
2019-04-01T17:29:46.911Z,19.97
2019-04-01T17:32:18.212Z,25.37
2019-04-01T17:34:49.574Z,21.53
2019-04-01T17:37:20.624Z,25.50
2019-04-01T17:39:51.720Z,18.67
2019-04-01T17:42:22.882Z,17.97
2019-04-01T17:44:57.240Z,13.87
2019-04-01T17:47:28.308Z,16.60
2019-04-01T17:50:00.233Z,17.67
2019-04-01T17:52:32.380Z,20.47
2019-04-01T17:55:04.583Z,15.50
2019-04-01T17:57:35.564Z,12.97
2019-04-01T18:00:12.265Z,13.27
2019-04-01T18:02:44.077Z,13.90
2019-04-01T18:05:17.664Z,13.90
2019-04-01T18:07:49.808Z,19.33
2019-04-01T18:10:20.979Z,12.70
2019-04-01T18:12:52.456Z,14.80
2019-04-01T18:15:23.871Z,15.53
2019-04-01T18:17:54.965Z,14.73
2019-04-01T18:20:27.784Z,15.53
2019-04-01T18:22:58.722Z,14.80
2019-04-01T18:25:29.999Z,17.47
2019-04-01T18:28:01.326Z,13.93
2019-04-01T18:30:35.135Z,22.63
2019-04-01T18:33:06.335Z,23.30
2019-04-01T18:35:37.622Z,17.00
2019-04-01T18:38:08.631Z,17.00
2019-04-01T18:40:39.635Z,17.30
2019-04-01T18:43:10.791Z,15.23
2019-04-01T18:45:42.315Z,17.63
2019-04-01T18:48:14.819Z,23.40
2019-04-01T18:50:46.097Z,19.63
2019-04-01T18:53:17.405Z,25.87
2019-04-01T18:55:48.311Z,24.50
2019-04-01T18:58:19.162Z,20.07
2019-04-01T19:00:50.370Z,20.23
2019-04-01T19:03:24.055Z,20.07
2019-04-01T19:05:54.412Z,25.67
2019-04-01T19:08:25.573Z,20.10
2019-04-01T19:11:02.514Z,22.30
2019-04-01T19:13:29.368Z,26.03
2019-04-01T19:16:01.637Z,23.57
2019-04-01T19:18:33.460Z,22.03
2019-04-01T19:21:06.009Z,21.87
2019-04-01T19:23:37.202Z,21.13
2019-04-01T19:26:10.142Z,29.60
2019-04-01T19:28:41.193Z,21.00
2019-04-01T19:31:14.327Z,29.73
2019-04-01T19:33:45.566Z,22.50
2019-04-01T19:36:16.929Z,22.90
2019-04-01T19:38:48.119Z,19.43
2019-04-01T19:41:19.521Z,33.00
2019-04-01T19:43:51.590Z,24.23
2019-04-01T19:46:23.083Z,30.10
2019-04-01T19:48:54.317Z,24.13
2019-04-01T19:51:25.510Z,33.43
2019-04-01T19:53:56.771Z,24.03
2019-04-01T19:56:27.898Z,20.97
2019-04-01T19:58:59.450Z,17.67
2019-04-01T20:01:30.641Z,24.50
2019-04-01T20:04:01.883Z,22.43
2019-04-01T20:06:33.097Z,20.90
2019-04-01T20:09:06.180Z,18.30
2019-04-01T20:11:37.361Z,17.87
2019-04-01T20:14:08.568Z,17.40
2019-04-01T20:16:41.102Z,16.90
2019-04-01T20:19:12.472Z,18.33
2019-04-01T20:21:43.531Z,16.10
2019-04-01T20:24:14.970Z,18.17
2019-04-01T20:26:46.214Z,20.47
2019-04-01T20:29:18.211Z,19.27
2019-04-01T20:31:49.299Z,17.00
2019-04-01T20:34:22.401Z,18.10
2019-04-01T20:36:53.116Z,19.60
2019-04-01T20:39:25.277Z,17.73
2019-04-01T20:41:56.757Z,15.13
2019-04-01T20:44:27.900Z,17.90
2019-04-01T20:46:58.966Z,16.73
2019-04-01T20:49:30.275Z,16.53
2019-04-01T20:52:01.650Z,21.03
2019-04-01T20:54:32.766Z,15.50
2019-04-01T20:57:05.219Z,15.17
2019-04-01T20:59:36.528Z,15.47
2019-04-01T21:02:07.674Z,15.50
2019-04-01T21:04:38.929Z,14.43
2019-04-01T21:07:10.177Z,14.63
2019-04-01T21:09:41.026Z,15.17
2019-04-01T21:12:12.097Z,15.30
2019-04-01T21:14:43.154Z,14.47
2019-04-01T21:17:14.471Z,16.53
2019-04-01T21:19:45.593Z,15.00
2019-04-01T21:22:16.672Z,14.57
2019-04-01T21:24:47.913Z,15.17
2019-04-01T21:27:19.090Z,13.40
2019-04-01T21:29:50.228Z,19.07
2019-04-01T21:32:22.360Z,22.03
2019-04-01T21:34:54.039Z,27.80
2019-04-01T21:37:25.252Z,26.00
2019-04-01T21:39:56.378Z,27.23
2019-04-01T21:42:27.580Z,27.30
2019-04-01T21:44:59.019Z,31.43
2019-04-01T21:47:29.902Z,29.00
2019-04-01T21:50:01.109Z,30.57
2019-04-01T21:52:31.975Z,32.73
2019-04-01T21:55:03.265Z,30.97
2019-04-01T21:57:34.164Z,35.40
2019-04-01T22:00:07.383Z,32.58
2019-04-01T22:02:40.821Z,37.88
2019-04-01T22:05:12.534Z,34.90
2019-04-01T22:07:44.091Z,33.90
2019-04-01T22:10:15.476Z,31.82
2019-04-01T22:12:46.827Z,36.73
2019-04-01T22:15:18.835Z,28.90
2019-04-01T22:17:50.218Z,35.70
2019-04-01T22:20:21.718Z,32.13
2019-04-01T22:22:53.326Z,31.33
2019-04-01T22:25:24.701Z,33.92
2019-04-01T22:27:56.228Z,33.02
2019-04-01T22:30:27.939Z,33.58
2019-04-01T22:32:59.358Z,29.05
2019-04-01T22:35:38.453Z,32.23
2019-04-01T22:38:06.200Z,30.50
2019-04-01T22:40:38.010Z,25.52
2019-04-01T22:43:09.371Z,26.80
2019-04-01T22:45:40.785Z,22.95
2019-04-01T22:48:12.028Z,25.12
2019-04-01T22:50:43.194Z,20.82
2019-04-01T22:53:14.684Z,24.52
2019-04-01T22:55:46.284Z,27.35
2019-04-01T22:58:17.771Z,23.73
2019-04-01T23:00:49.066Z,24.07
2019-04-01T23:03:20.286Z,23.73
2019-04-01T23:05:51.623Z,22.85
2019-04-01T23:08:22.903Z,23.62
2019-04-01T23:10:54.316Z,25.23
2019-04-01T23:13:25.591Z,20.35
2019-04-01T23:15:56.947Z,25.30
2019-04-01T23:18:28.091Z,28.73
2019-04-01T23:20:59.255Z,25.80
2019-04-01T23:23:30.630Z,26.00
2019-04-01T23:26:01.897Z,26.82
2019-04-01T23:28:33.301Z,23.07
2019-04-01T23:31:04.771Z,23.20
2019-04-01T23:33:36.252Z,21.80
2019-04-01T23:36:07.718Z,20.25
2019-04-01T23:38:40.113Z,21.35
2019-04-01T23:41:11.698Z,23.47
2019-04-01T23:43:43.121Z,24.35
2019-04-01T23:46:14.491Z,22.70
2019-04-01T23:48:45.957Z,22.42
2019-04-01T23:51:17.254Z,22.25
2019-04-01T23:53:48.520Z,22.05
2019-04-01T23:56:20.076Z,24.05
2019-04-01T23:58:51.627Z,24.12
